createdAt,value
2023-04-12T00:00:21.877Z,2784.00
2023-04-12T00:01:21.874Z,2774.00
2023-04-12T00:02:22.056Z,2776.00
2023-04-12T00:03:22.029Z,2779.00
2023-04-12T00:04:22.098Z,2770.00
2023-04-12T00:05:22.034Z,2766.00
2023-04-12T00:06:21.913Z,2769.00
2023-04-12T00:07:21.915Z,2768.00
2023-04-12T00:08:21.918Z,2770.00
2023-04-12T00:09:21.901Z,2769.00
2023-04-12T00:10:21.912Z,2766.00
2023-04-12T00:11:21.917Z,2773.00
2023-04-12T00:12:21.937Z,2769.00
2023-04-12T00:13:21.970Z,2771.00
2023-04-12T00:14:21.969Z,2770.00
2023-04-12T00:15:21.970Z,2768.00
2023-04-12T00:16:22.017Z,2754.00
2023-04-12T00:17:22.080Z,2752.00
2023-04-12T00:18:22.045Z,2753.00
2023-04-12T00:19:22.069Z,2750.00
2023-04-12T00:20:22.114Z,2745.00
2023-04-12T00:21:22.135Z,2747.00
2023-04-12T00:22:22.141Z,2762.00
2023-04-12T00:23:22.142Z,2753.00
2023-04-12T00:24:22.139Z,2761.00
2023-04-12T00:25:22.187Z,2766.00
2023-04-12T00:26:22.198Z,2764.00
2023-04-12T00:27:22.231Z,2761.00
2023-04-12T00:28:22.250Z,2753.00
2023-04-12T00:29:22.295Z,2746.00
2023-04-12T00:30:22.335Z,2754.00
2023-04-12T00:31:22.442Z,2749.00
2023-04-12T00:32:22.446Z,2750.00
2023-04-12T00:33:22.477Z,2743.00
2023-04-12T00:34:22.487Z,2742.00
2023-04-12T00:35:22.514Z,2741.00
2023-04-12T00:36:22.512Z,2747.00
2023-04-12T00:37:22.530Z,2748.00
2023-04-12T00:38:22.532Z,2747.00
2023-04-12T00:39:22.540Z,2739.00
2023-04-12T00:40:22.557Z,2735.00
2023-04-12T00:41:22.544Z,2732.00
2023-04-12T00:42:22.560Z,2728.00
2023-04-12T00:43:22.585Z,2732.00
2023-04-12T00:44:22.587Z,2729.00
2023-04-12T00:45:22.627Z,2731.00
2023-04-12T00:46:22.641Z,2727.00
2023-04-12T00:47:22.699Z,2728.00
2023-04-12T00:48:22.693Z,2729.00
2023-04-12T00:49:22.675Z,2718.00
2023-04-12T00:50:22.679Z,2719.00
2023-04-12T00:51:22.730Z,2718.00
2023-04-12T00:52:22.665Z,2718.00
2023-04-12T00:53:22.709Z,2714.00
2023-04-12T00:54:22.697Z,2720.00
2023-04-12T00:55:22.718Z,2724.00
2023-04-12T00:56:22.682Z,2726.00
2023-04-12T00:57:22.700Z,2729.00
2023-04-12T00:58:22.719Z,2723.00
2023-04-12T00:59:22.715Z,2724.00
2023-04-12T01:00:22.741Z,2718.00
2023-04-12T01:01:22.818Z,2715.00
2023-04-12T01:02:22.854Z,2716.00
2023-04-12T01:03:23.039Z,2712.00
2023-04-12T01:04:22.754Z,2713.00
2023-04-12T01:05:22.776Z,2710.00
2023-04-12T01:06:22.726Z,2708.00
2023-04-12T01:07:22.731Z,2714.00
2023-04-12T01:08:22.742Z,2718.00
2023-04-12T01:09:22.737Z,2717.00
2023-04-12T01:10:22.776Z,2716.00
2023-04-12T01:11:22.750Z,2714.00
2023-04-12T01:12:22.781Z,2715.00
2023-04-12T01:13:22.804Z,2707.00
2023-04-12T01:14:22.864Z,2713.00
2023-04-12T01:15:22.870Z,2716.00
2023-04-12T01:16:22.953Z,2716.00
2023-04-12T01:17:22.934Z,2713.00
2023-04-12T01:18:22.968Z,2710.00
2023-04-12T01:19:23.028Z,2710.00
2023-04-12T01:20:23.087Z,2707.00
2023-04-12T01:21:23.147Z,2705.00
2023-04-12T01:22:23.178Z,2702.00
2023-04-12T01:23:23.239Z,2700.00
2023-04-12T01:24:23.298Z,2700.00
2023-04-12T01:25:23.354Z,2692.00
2023-04-12T01:26:23.467Z,2691.00
2023-04-12T01:27:23.497Z,2691.00
2023-04-12T01:28:23.546Z,2687.00
2023-04-12T01:29:23.567Z,2689.00
2023-04-12T01:30:23.597Z,2688.00
2023-04-12T01:31:23.652Z,2686.00
2023-04-12T01:32:23.688Z,2688.00
2023-04-12T01:33:23.693Z,2689.00
2023-04-12T01:34:23.695Z,2690.00
2023-04-12T01:35:23.737Z,2685.00
2023-04-12T01:36:23.756Z,2692.00
2023-04-12T01:37:23.751Z,2686.00
2023-04-12T01:38:23.756Z,2683.00
2023-04-12T01:39:23.760Z,2679.00
2023-04-12T01:40:23.804Z,2676.00
2023-04-12T01:41:23.850Z,2676.00
2023-04-12T01:42:23.881Z,2662.00
2023-04-12T01:43:23.943Z,2660.00
2023-04-12T01:44:24.009Z,2666.00
2023-04-12T01:45:24.066Z,2660.00
2023-04-12T01:46:24.043Z,2665.00
2023-04-12T01:47:24.107Z,2662.00
2023-04-12T01:48:24.122Z,2665.00
2023-04-12T01:49:24.176Z,2656.00
2023-04-12T01:50:24.231Z,2658.00
2023-04-12T01:51:24.280Z,2644.00
2023-04-12T01:52:24.334Z,2645.00
2023-04-12T01:53:24.376Z,2646.00
2023-04-12T01:54:24.442Z,2644.00
2023-04-12T01:55:24.490Z,2647.00
2023-04-12T01:56:24.538Z,2646.00
2023-04-12T01:57:24.590Z,2645.00
2023-04-12T01:58:24.603Z,2644.00
2023-04-12T01:59:24.633Z,2645.00
2023-04-12T02:00:24.673Z,2641.00
2023-04-12T02:01:24.750Z,2646.00
2023-04-12T02:02:24.933Z,2652.00
2023-04-12T02:03:25.034Z,2639.00
2023-04-12T02:04:24.912Z,2635.00
2023-04-12T02:05:24.960Z,2641.00
2023-04-12T02:06:25.036Z,2636.00
2023-04-12T02:07:25.092Z,2633.00
2023-04-12T02:08:25.143Z,2627.00
2023-04-12T02:09:25.185Z,2627.00
2023-04-12T02:10:25.249Z,2633.00
2023-04-12T02:11:25.289Z,2635.00
2023-04-12T02:12:25.346Z,2632.00
2023-04-12T02:13:25.393Z,2630.00
2023-04-12T02:14:25.460Z,2629.00
2023-04-12T02:15:25.522Z,2625.00
2023-04-12T02:16:25.605Z,2621.00
2023-04-12T02:17:25.629Z,2614.00
2023-04-12T02:18:25.696Z,2618.00
2023-04-12T02:19:25.754Z,2625.00
2023-04-12T02:20:25.814Z,2626.00
2023-04-12T02:21:25.866Z,2623.00
2023-04-12T02:22:25.918Z,2617.00
2023-04-12T02:23:25.965Z,2614.00
2023-04-12T02:24:26.021Z,2610.00
2023-04-12T02:25:26.088Z,2601.00
2023-04-12T02:26:26.158Z,2610.00
2023-04-12T02:27:26.201Z,2611.00
2023-04-12T02:28:26.265Z,2613.00
2023-04-12T02:29:26.329Z,2616.00
2023-04-12T02:30:26.423Z,2616.00
2023-04-12T02:31:26.430Z,2606.00
2023-04-12T02:32:26.570Z,2600.00
2023-04-12T02:33:26.557Z,2605.00
2023-04-12T02:34:26.627Z,2609.00
2023-04-12T02:35:26.710Z,2613.00
2023-04-12T02:36:26.737Z,2614.00
2023-04-12T02:37:26.805Z,2611.00
2023-04-12T02:38:26.851Z,2615.00
2023-04-12T02:39:26.913Z,2615.00
2023-04-12T02:40:26.984Z,2621.00
2023-04-12T02:41:27.025Z,2618.00
2023-04-12T02:42:27.076Z,2615.00
2023-04-12T02:43:27.133Z,2607.00
2023-04-12T02:44:27.200Z,2608.00
2023-04-12T02:45:27.256Z,2608.00
2023-04-12T02:46:27.468Z,2605.00
2023-04-12T02:47:27.495Z,2604.00
2023-04-12T02:48:27.419Z,2602.00
2023-04-12T02:49:28.292Z,2601.00
2023-04-12T02:50:27.536Z,2602.00
2023-04-12T02:51:27.603Z,2601.00
2023-04-12T02:52:27.639Z,2602.00
2023-04-12T02:53:27.712Z,2597.00
2023-04-12T02:54:27.767Z,2596.00
2023-04-12T02:55:27.828Z,2591.00
2023-04-12T02:56:27.890Z,2596.00
2023-04-12T02:57:27.945Z,2590.00
2023-04-12T02:58:28.003Z,2584.00
2023-04-12T02:59:28.066Z,2585.00
2023-04-12T03:00:28.126Z,2582.00
2023-04-12T03:01:28.255Z,2581.00
2023-04-12T03:02:28.339Z,2579.00
2023-04-12T03:03:28.413Z,2583.00
2023-04-12T03:04:28.646Z,2581.00
2023-04-12T03:05:28.445Z,2581.00
2023-04-12T03:06:28.503Z,2570.00
2023-04-12T03:07:28.560Z,2567.00
2023-04-12T03:08:28.628Z,2565.00
2023-04-12T03:09:28.687Z,2553.00
2023-04-12T03:10:28.743Z,2550.00
2023-04-12T03:11:28.815Z,2562.00
2023-04-12T03:12:28.868Z,2564.00
2023-04-12T03:13:28.924Z,2566.00
2023-04-12T03:14:28.970Z,2559.00
2023-04-12T03:15:29.082Z,2555.00
2023-04-12T03:16:29.104Z,2555.00
2023-04-12T03:17:29.178Z,2557.00
2023-04-12T03:18:29.222Z,2559.00
2023-04-12T03:19:29.283Z,2553.00
2023-04-12T03:20:29.328Z,2552.00
2023-04-12T03:21:29.416Z,2554.00
2023-04-12T03:22:29.458Z,2550.00
2023-04-12T03:23:29.525Z,2548.00
2023-04-12T03:24:29.563Z,2542.00
2023-04-12T03:25:29.614Z,2544.00
2023-04-12T03:26:29.666Z,2552.00
2023-04-12T03:27:29.721Z,2527.00
2023-04-12T03:28:29.771Z,2538.00
2023-04-12T03:29:29.831Z,2547.00
2023-04-12T03:30:29.893Z,2546.00
2023-04-12T03:31:30.039Z,2540.00
2023-04-12T03:32:30.032Z,2535.00
2023-04-12T03:33:30.072Z,2530.00
2023-04-12T03:34:30.115Z,2529.00
2023-04-12T03:35:30.233Z,2536.00
2023-04-12T03:36:30.243Z,2534.00
2023-04-12T03:37:30.310Z,2536.00
2023-04-12T03:38:30.357Z,2534.00
2023-04-12T03:39:30.406Z,2535.00
2023-04-12T03:40:30.456Z,2543.00
2023-04-12T03:41:30.518Z,2538.00
2023-04-12T03:42:33.632Z,2526.00
2023-04-12T03:43:30.562Z,2533.00
2023-04-12T03:44:30.567Z,2530.00
2023-04-12T03:45:30.551Z,2526.00
2023-04-12T03:46:30.578Z,2521.00
2023-04-12T03:47:30.555Z,2522.00
2023-04-12T03:48:30.508Z,2517.00
2023-04-12T03:49:30.517Z,2512.00
2023-04-12T03:50:30.502Z,2513.00
2023-04-12T03:51:30.499Z,2513.00
2023-04-12T03:52:30.503Z,2519.00
2023-04-12T03:53:30.486Z,2511.00
2023-04-12T03:54:30.483Z,2511.00
2023-04-12T03:55:30.481Z,2510.00
2023-04-12T03:56:30.486Z,2507.00
2023-04-12T03:57:30.468Z,2504.00
2023-04-12T03:58:30.477Z,2503.00
2023-04-12T03:59:30.466Z,2502.00
2023-04-12T04:00:30.467Z,2506.00
2023-04-12T04:01:30.544Z,2501.00
2023-04-12T04:02:30.693Z,2501.00
2023-04-12T04:03:30.597Z,2511.00
2023-04-12T04:04:30.508Z,2512.00
2023-04-12T04:05:30.449Z,2511.00
2023-04-12T04:06:30.482Z,2507.00
2023-04-12T04:07:30.446Z,2502.00
2023-04-12T04:08:30.436Z,2505.00
2023-04-12T04:09:30.438Z,2502.00
2023-04-12T04:10:30.437Z,2501.00
2023-04-12T04:11:30.446Z,2499.00
2023-04-12T04:12:30.452Z,2502.00
2023-04-12T04:13:30.436Z,2508.00
2023-04-12T04:14:30.421Z,2507.00
2023-04-12T04:15:30.426Z,2499.00
2023-04-12T04:16:30.434Z,2495.00
2023-04-12T04:17:30.478Z,2491.00
2023-04-12T04:18:30.474Z,2488.00
2023-04-12T04:19:30.543Z,2486.00
2023-04-12T04:20:30.574Z,2480.00
2023-04-12T04:21:30.717Z,2486.00
2023-04-12T04:22:30.680Z,2479.00
2023-04-12T04:23:30.737Z,2472.00
2023-04-12T04:24:30.790Z,2473.00
2023-04-12T04:25:30.847Z,2470.00
2023-04-12T04:26:30.880Z,2468.00
2023-04-12T04:27:30.941Z,2470.00
2023-04-12T04:28:31.021Z,2466.00
2023-04-12T04:29:31.040Z,2468.00
2023-04-12T04:30:31.124Z,2469.00
2023-04-12T04:31:31.164Z,2477.00
2023-04-12T04:32:31.240Z,2477.00
2023-04-12T04:33:31.258Z,2479.00
2023-04-12T04:34:31.306Z,2483.00
2023-04-12T04:35:31.382Z,2477.00
2023-04-12T04:36:31.399Z,2469.00
2023-04-12T04:37:31.453Z,2457.00
2023-04-12T04:38:31.516Z,2459.00
2023-04-12T04:39:31.565Z,2466.00
2023-04-12T04:40:31.608Z,2465.00
2023-04-12T04:41:31.660Z,2471.00
2023-04-12T04:42:31.723Z,2478.00
2023-04-12T04:43:31.768Z,2477.00
2023-04-12T04:44:31.860Z,2468.00
2023-04-12T04:45:31.868Z,2458.00
2023-04-12T04:46:31.903Z,2455.00
2023-04-12T04:47:31.992Z,2454.00
2023-04-12T04:48:32.017Z,2458.00
2023-04-12T04:49:32.057Z,2463.00
2023-04-12T04:50:32.116Z,2449.00
2023-04-12T04:51:32.184Z,2456.00
2023-04-12T04:52:32.219Z,2455.00
2023-04-12T04:53:32.274Z,2450.00
2023-04-12T04:54:32.328Z,2445.00
2023-04-12T04:55:32.381Z,2448.00
2023-04-12T04:56:32.439Z,2450.00
2023-04-12T04:57:32.474Z,2439.00
2023-04-12T04:58:32.529Z,2442.00
2023-04-12T04:59:32.574Z,2440.00
2023-04-12T05:00:32.609Z,2444.00
2023-04-12T05:01:32.686Z,2443.00
2023-04-12T05:02:32.764Z,2439.00
2023-04-12T05:03:32.814Z,2435.00
2023-04-12T05:04:32.871Z,2434.00
2023-04-12T05:05:32.823Z,2439.00
2023-04-12T05:06:32.875Z,2427.00
2023-04-12T05:07:32.903Z,2426.00
2023-04-12T05:08:32.937Z,2427.00
2023-04-12T05:09:32.973Z,2430.00
2023-04-12T05:10:33.015Z,2428.00
2023-04-12T05:11:33.023Z,2422.00
2023-04-12T05:12:33.257Z,2418.00
2023-04-12T05:13:33.105Z,2407.00
2023-04-12T05:14:45.529Z,2409.00
2023-04-12T05:15:34.139Z,2402.00
2023-04-12T05:16:33.144Z,2397.00
2023-04-12T05:17:33.181Z,2392.00
2023-04-12T05:18:33.125Z,2398.00
2023-04-12T05:19:33.122Z,2395.00
2023-04-12T05:20:33.120Z,2389.00
2023-04-12T05:21:33.124Z,2420.00
2023-04-12T05:22:33.113Z,2415.00
2023-04-12T05:23:33.102Z,2400.00
2023-04-12T05:24:33.102Z,2407.00
2023-04-12T05:25:33.087Z,2392.00
2023-04-12T05:26:33.073Z,2397.00
2023-04-12T05:27:33.083Z,2392.00
2023-04-12T05:28:33.074Z,2396.00
2023-04-12T05:29:33.107Z,2417.00
2023-04-12T05:30:34.135Z,2389.00
2023-04-12T05:31:33.087Z,2390.00
2023-04-12T05:32:33.871Z,2245.00
2023-04-12T05:33:33.800Z,2243.00
2023-04-12T05:34:33.048Z,2045.00
2023-04-12T05:35:33.094Z,2045.00
2023-04-12T05:36:33.047Z,2101.00
2023-04-12T05:37:33.037Z,2159.00
2023-04-12T05:38:33.029Z,2177.00
2023-04-12T05:39:33.027Z,2191.00
2023-04-12T05:40:33.021Z,2203.00
2023-04-12T05:41:33.006Z,2211.00
2023-04-12T05:42:33.011Z,2218.00
2023-04-12T05:43:32.969Z,2215.00
2023-04-12T05:44:32.961Z,2209.00
2023-04-12T05:45:32.966Z,2208.00
2023-04-12T05:46:33.042Z,2214.00
2023-04-12T05:47:33.053Z,2213.00
2023-04-12T05:48:33.054Z,2209.00
2023-04-12T05:49:33.093Z,2202.00
2023-04-12T05:50:33.128Z,2206.00
2023-04-12T05:51:40.970Z,2187.00
2023-04-12T05:52:34.128Z,2192.00
2023-04-12T05:53:33.124Z,2193.00
2023-04-12T05:54:33.081Z,2194.00
2023-04-12T05:55:33.537Z,2193.00
2023-04-12T05:56:33.081Z,2196.00
2023-04-12T05:57:33.029Z,2199.00
2023-04-12T05:58:33.013Z,2200.00
2023-04-12T05:59:32.990Z,2198.00
2023-04-12T06:00:32.989Z,2201.00
2023-04-12T06:01:32.983Z,2201.00
2023-04-12T06:02:33.115Z,2194.00
2023-04-12T06:03:33.221Z,2193.00
2023-04-12T06:04:46.849Z,2193.00
2023-04-12T06:05:34.181Z,2192.00
2023-04-12T06:06:33.043Z,2189.00
2023-04-12T06:07:33.027Z,2187.00
2023-04-12T06:08:34.943Z,2192.00
2023-04-12T06:09:32.995Z,2195.00
2023-04-12T06:10:32.973Z,2205.00
2023-04-12T06:11:32.960Z,2191.00
2023-04-12T06:12:32.952Z,2191.00
2023-04-12T06:13:32.924Z,2190.00
2023-04-12T06:14:32.922Z,2193.00
2023-04-12T06:15:32.930Z,2194.00
2023-04-12T06:16:32.998Z,2193.00
2023-04-12T06:17:32.901Z,2186.00
2023-04-12T06:18:32.883Z,2188.00
2023-04-12T06:19:32.871Z,2187.00
2023-04-12T06:20:32.859Z,2184.00
2023-04-12T06:21:32.851Z,2183.00
2023-04-12T06:22:32.860Z,2177.00
2023-04-12T06:23:32.847Z,2174.00
2023-04-12T06:24:32.807Z,2173.00
2023-04-12T06:25:32.797Z,2173.00
2023-04-12T06:26:39.859Z,2228.00
2023-04-12T06:27:33.790Z,2240.00
2023-04-12T06:28:32.806Z,2266.00
2023-04-12T06:29:33.286Z,2285.00
2023-04-12T06:30:32.888Z,2299.00
2023-04-12T06:31:32.733Z,2366.00
2023-04-12T06:32:32.713Z,2371.00
2023-04-12T06:33:32.680Z,2380.00
2023-04-12T06:34:34.413Z,2412.00
2023-04-12T06:35:32.672Z,2459.00
2023-04-12T06:36:32.625Z,2471.00
2023-04-12T06:37:32.608Z,2484.00
2023-04-12T06:38:32.582Z,2498.00
2023-04-12T06:39:32.559Z,2516.00
2023-04-12T06:40:32.541Z,2527.00
2023-04-12T06:41:32.516Z,2580.00
2023-04-12T06:42:32.507Z,2595.00
2023-04-12T06:43:32.603Z,2609.00
2023-04-12T06:44:33.357Z,2618.00
2023-04-12T06:45:32.652Z,2631.00
2023-04-12T06:46:32.723Z,2645.00
2023-04-12T06:47:32.865Z,2677.00
2023-04-12T06:48:33.714Z,2725.00
2023-04-12T06:49:32.702Z,2741.00
2023-04-12T06:50:32.688Z,2761.00
2023-04-12T06:51:32.653Z,2784.00
2023-04-12T06:52:32.618Z,2802.00
2023-04-12T06:53:32.625Z,2814.00
2023-04-12T06:54:32.563Z,2822.00
2023-04-12T06:55:32.544Z,2859.00
2023-04-12T06:56:32.526Z,2889.00
2023-04-12T06:57:32.470Z,2887.00
2023-04-12T06:58:32.442Z,2896.00
2023-04-12T06:59:32.401Z,2897.00
2023-04-12T07:00:32.402Z,2926.00
2023-04-12T07:01:32.395Z,2958.00
2023-04-12T07:02:32.561Z,2973.00
2023-04-12T07:03:32.425Z,2999.00
2023-04-12T07:04:32.411Z,3000.00
2023-04-12T07:05:32.432Z,3058.00
2023-04-12T07:06:32.433Z,3069.00
2023-04-12T07:07:32.429Z,3081.00
2023-04-12T07:08:32.429Z,3120.00
2023-04-12T07:09:32.424Z,3124.00
2023-04-12T07:10:32.431Z,3135.00
2023-04-12T07:11:32.487Z,3156.00
2023-04-12T07:12:32.436Z,3173.00
2023-04-12T07:13:32.418Z,3201.00
2023-04-12T07:14:32.397Z,3204.00
2023-04-12T07:15:32.406Z,2905.00
2023-04-12T07:16:32.574Z,2541.00
2023-04-12T07:17:32.503Z,2693.00
2023-04-12T07:18:32.482Z,2041.00
2023-04-12T07:19:32.491Z,1543.00
2023-04-12T07:20:32.603Z,1335.00
2023-04-12T07:21:32.532Z,1134.00
2023-04-12T07:22:32.571Z,983.00
2023-04-12T07:23:32.575Z,962.00
2023-04-12T07:24:32.581Z,960.00
2023-04-12T07:25:32.605Z,1134.00
2023-04-12T07:26:32.612Z,1277.00
2023-04-12T07:27:32.638Z,1323.00
2023-04-12T07:28:32.705Z,1334.00
2023-04-12T07:29:32.740Z,1365.00
2023-04-12T07:30:32.767Z,1409.00
2023-04-12T07:31:32.804Z,1438.00
2023-04-12T07:32:32.862Z,1510.00
2023-04-12T07:33:32.823Z,1518.00
2023-04-12T07:34:32.810Z,1589.00
2023-04-12T07:35:32.788Z,1605.00
2023-04-12T07:36:32.818Z,1648.00
2023-04-12T07:37:32.806Z,1670.00
2023-04-12T07:38:32.847Z,1722.00
2023-04-12T07:39:32.940Z,1745.00
2023-04-12T07:40:32.905Z,1842.00
2023-04-12T07:41:32.921Z,1853.00
2023-04-12T07:42:32.943Z,1872.00
2023-04-12T07:43:32.943Z,1887.00
2023-04-12T07:44:32.927Z,1920.00
2023-04-12T07:45:32.973Z,1969.00
2023-04-12T07:46:32.941Z,2000.00
2023-04-12T07:47:33.031Z,2013.00
2023-04-12T07:48:32.990Z,2061.00
2023-04-12T07:49:32.954Z,2085.00
2023-04-12T07:50:32.925Z,2109.00
2023-04-12T07:51:32.928Z,2145.00
2023-04-12T07:52:32.982Z,2183.00
2023-04-12T07:53:32.882Z,2209.00
2023-04-12T07:54:32.852Z,2277.00
2023-04-12T07:55:32.837Z,2283.00
2023-04-12T07:56:32.905Z,2297.00
2023-04-12T07:57:34.169Z,2372.00
2023-04-12T07:58:32.918Z,2396.00
2023-04-12T07:59:32.935Z,2407.00
2023-04-12T08:00:32.896Z,2435.00
2023-04-12T08:01:32.872Z,2480.00
2023-04-12T08:02:32.969Z,2525.00
2023-04-12T08:03:32.871Z,2543.00
2023-04-12T08:04:32.816Z,2561.00
2023-04-12T08:05:32.890Z,2606.00
2023-04-12T08:06:34.236Z,2635.00
2023-04-12T08:07:32.891Z,2701.00
2023-04-12T08:08:32.903Z,2715.00
2023-04-12T08:09:32.908Z,2723.00
2023-04-12T08:10:32.906Z,2740.00
2023-04-12T08:11:32.903Z,2788.00
2023-04-12T08:12:33.892Z,2879.00
2023-04-12T08:13:33.860Z,2955.00
2023-04-12T08:14:32.854Z,2909.00
2023-04-12T08:15:32.840Z,2891.00
2023-04-12T08:16:32.759Z,2897.00
2023-04-12T08:17:32.743Z,2874.00
2023-04-12T08:18:32.680Z,2838.00
2023-04-12T08:19:32.696Z,2923.00
2023-04-12T08:20:32.617Z,2628.00
2023-04-12T08:21:32.574Z,2521.00
2023-04-12T08:22:32.547Z,2494.00
2023-04-12T08:23:32.497Z,2448.00
2023-04-12T08:24:32.507Z,2430.00
2023-04-12T08:25:33.433Z,2413.00
2023-04-12T08:26:32.389Z,2405.00
2023-04-12T08:27:32.346Z,2440.00
2023-04-12T08:28:32.304Z,2449.00
2023-04-12T08:29:32.268Z,2468.00
2023-04-12T08:30:32.231Z,2488.00
2023-04-12T08:31:32.269Z,2562.00
2023-04-12T08:32:32.241Z,2577.00
2023-04-12T08:33:32.108Z,2618.00
2023-04-12T08:34:32.076Z,2652.00
2023-04-12T08:35:32.094Z,2696.00
2023-04-12T08:36:31.976Z,2717.00
2023-04-12T08:37:32.911Z,2728.00
2023-04-12T08:39:32.842Z,2800.00
2023-04-12T08:40:31.963Z,2863.00
2023-04-12T08:41:31.783Z,2878.00
2023-04-12T08:42:31.710Z,2887.00
2023-04-12T08:43:31.662Z,2924.00
2023-04-12T08:44:31.624Z,2924.00
2023-04-12T08:45:31.575Z,2959.00
2023-04-12T08:46:31.639Z,3011.00
2023-04-12T08:47:31.560Z,3034.00
2023-04-12T08:48:31.550Z,3055.00
2023-04-12T08:49:32.402Z,3094.00
2023-04-12T08:50:31.581Z,3170.00
2023-04-12T08:51:31.597Z,3168.00
2023-04-12T08:52:31.614Z,3223.00
2023-04-12T08:53:31.635Z,3222.00
2023-04-12T08:54:31.614Z,3242.00
2023-04-12T08:55:31.623Z,3271.00
2023-04-12T08:56:31.633Z,3290.00
2023-04-12T08:57:31.764Z,3367.00
2023-04-12T08:58:31.630Z,3367.00
2023-04-12T08:59:31.638Z,3385.00
2023-04-12T09:00:31.636Z,3430.00
2023-04-12T09:01:31.671Z,3447.00
2023-04-12T09:02:31.907Z,3529.00
2023-04-12T09:03:33.539Z,3551.00
2023-04-12T09:04:31.630Z,3597.00
2023-04-12T09:05:31.569Z,3611.00
2023-04-12T09:06:31.567Z,3653.00
2023-04-12T09:07:31.544Z,3677.00
2023-04-12T09:09:51.158Z,3738.00
2023-04-12T09:10:51.099Z,3756.00
2023-04-12T09:11:52.069Z,3778.00
2023-04-12T09:12:52.780Z,3815.00
2023-04-12T09:13:58.730Z,3873.00
2023-04-12T09:14:50.959Z,3917.00
2023-04-12T09:15:50.903Z,3932.00
2023-04-12T09:16:50.947Z,3966.00
2023-04-12T09:17:50.887Z,4031.00
2023-04-12T09:18:50.772Z,4027.00
2023-04-12T09:19:50.846Z,4013.00
2023-04-12T09:20:50.678Z,3939.00
2023-04-12T09:21:50.641Z,3934.00
2023-04-12T09:22:50.612Z,3908.00
2023-04-12T09:23:50.557Z,3898.00
2023-04-12T09:24:50.625Z,3889.00
2023-04-12T09:25:50.565Z,3869.00
2023-04-12T09:26:50.581Z,3866.00
2023-04-12T09:27:50.687Z,3878.00
2023-04-12T09:28:50.608Z,3878.00
2023-04-12T09:29:50.646Z,3861.00
2023-04-12T09:30:50.661Z,3856.00
2023-04-12T09:31:50.728Z,3860.00
2023-04-12T09:32:50.858Z,3855.00
2023-04-12T09:33:50.710Z,3847.00
2023-04-12T09:34:50.734Z,3854.00
2023-04-12T09:35:50.806Z,3864.00
2023-04-12T09:36:50.820Z,3862.00
2023-04-12T09:37:50.804Z,3863.00
2023-04-12T09:38:50.782Z,3860.00
2023-04-12T09:39:50.790Z,3849.00
2023-04-12T09:40:50.797Z,3846.00
2023-04-12T09:41:50.737Z,3827.00
2023-04-12T09:42:50.774Z,3829.00
2023-04-12T09:43:50.848Z,3833.00
2023-04-12T09:44:50.777Z,3851.00
2023-04-12T09:45:50.832Z,3845.00
2023-04-12T09:46:51.037Z,3849.00
2023-04-12T09:47:50.909Z,3843.00
2023-04-12T09:48:50.839Z,3839.00
2023-04-12T09:49:50.831Z,3806.00
2023-04-12T09:50:50.916Z,3814.00
2023-04-12T09:51:50.961Z,3805.00
2023-04-12T09:52:51.030Z,3808.00
2023-04-12T09:53:51.113Z,3807.00
2023-04-12T09:54:51.109Z,3807.00
2023-04-12T09:55:51.090Z,3798.00
2023-04-12T09:56:51.423Z,3794.00
2023-04-12T09:57:51.089Z,3787.00
2023-04-12T09:58:51.088Z,3780.00
2023-04-12T09:59:51.053Z,3783.00
2023-04-12T10:00:51.046Z,3784.00
2023-04-12T10:01:51.034Z,3784.00
2023-04-12T10:02:51.794Z,3792.00
2023-04-12T10:03:51.212Z,3790.00
2023-04-12T10:04:51.072Z,3778.00
2023-04-12T10:05:50.939Z,3768.00
2023-04-12T10:06:50.914Z,3767.00
2023-04-12T10:07:50.903Z,3763.00
2023-04-12T10:08:50.968Z,3765.00
2023-04-12T10:09:51.002Z,3766.00
2023-04-12T10:10:50.982Z,3763.00
2023-04-12T10:11:51.016Z,3762.00
2023-04-12T10:12:51.008Z,3757.00
2023-04-12T10:13:51.436Z,3736.00
2023-04-12T10:14:50.921Z,3734.00
2023-04-12T10:15:50.930Z,3743.00
2023-04-12T10:16:50.849Z,3738.00
2023-04-12T10:17:50.899Z,3741.00
2023-04-12T10:18:50.803Z,3749.00
2023-04-12T10:19:50.826Z,3752.00
2023-04-12T10:20:50.830Z,3746.00
2023-04-12T10:21:50.812Z,3730.00
2023-04-12T10:22:50.957Z,3734.00
2023-04-12T10:23:50.715Z,3745.00
2023-04-12T10:24:50.726Z,3739.00
2023-04-12T10:25:50.751Z,3739.00
2023-04-12T10:26:50.873Z,3740.00
2023-04-12T10:27:50.814Z,3737.00
2023-04-12T10:28:50.756Z,3734.00
2023-04-12T10:29:50.751Z,3731.00
2023-04-12T10:30:50.710Z,3725.00
2023-04-12T10:31:50.797Z,3720.00
2023-04-12T10:32:50.763Z,3733.00
2023-04-12T10:33:50.722Z,3704.00
2023-04-12T10:34:50.669Z,3701.00
2023-04-12T10:35:50.700Z,3696.00
2023-04-12T10:36:50.627Z,3699.00
2023-04-12T10:37:50.591Z,3708.00
2023-04-12T10:38:50.646Z,3695.00
2023-04-12T10:39:50.706Z,3708.00
2023-04-12T10:40:50.761Z,3698.00
2023-04-12T10:41:50.817Z,3694.00
2023-04-12T10:42:50.910Z,3687.00
2023-04-12T10:43:50.948Z,3689.00
2023-04-12T10:44:51.004Z,3694.00
2023-04-12T10:45:51.065Z,3690.00
2023-04-12T10:46:51.307Z,3693.00
2023-04-12T10:47:51.878Z,3689.00
2023-04-12T10:48:51.189Z,3678.00
2023-04-12T10:49:51.242Z,3668.00
2023-04-12T10:50:51.230Z,3669.00
2023-04-12T10:51:51.259Z,3667.00
2023-04-12T10:52:51.215Z,3666.00
2023-04-12T10:53:51.212Z,3658.00
2023-04-12T10:54:51.185Z,3652.00
2023-04-12T10:55:51.209Z,3656.00
2023-04-12T10:56:51.190Z,3654.00
2023-04-12T10:57:51.225Z,3645.00
2023-04-12T10:58:51.164Z,3642.00
2023-04-12T10:59:51.204Z,3640.00
2023-04-12T11:00:51.246Z,3645.00
2023-04-12T11:01:51.333Z,3643.00
2023-04-12T11:02:51.329Z,3643.00
2023-04-12T11:03:51.528Z,3632.00
2023-04-12T11:04:51.290Z,3628.00
2023-04-12T11:05:51.296Z,3617.00
2023-04-12T11:06:52.527Z,3621.00
2023-04-12T11:07:51.215Z,3616.00
2023-04-12T11:08:51.178Z,3609.00
2023-04-12T11:09:51.136Z,3609.00
2023-04-12T11:10:51.146Z,3614.00
2023-04-12T11:11:51.117Z,3611.00
2023-04-12T11:12:51.124Z,3608.00
2023-04-12T11:13:51.189Z,3613.00
2023-04-12T11:14:51.171Z,3606.00
2023-04-12T11:15:51.141Z,3576.00
2023-04-12T11:16:51.186Z,3586.00
2023-04-12T11:17:51.262Z,3587.00
2023-04-12T11:18:51.180Z,3593.00
2023-04-12T11:19:51.108Z,3596.00
2023-04-12T11:20:51.113Z,3592.00
2023-04-12T11:21:51.170Z,3589.00
2023-04-12T11:22:51.168Z,3587.00
2023-04-12T11:23:51.177Z,3574.00
2023-04-12T11:24:51.151Z,3572.00
2023-04-12T11:25:51.116Z,3592.00
2023-04-12T11:26:51.077Z,3576.00
2023-04-12T11:27:51.071Z,3559.00
2023-04-12T11:28:51.116Z,3570.00
2023-04-12T11:29:51.124Z,3579.00
2023-04-12T11:30:51.128Z,3580.00
2023-04-12T11:31:51.216Z,3562.00
2023-04-12T11:32:51.217Z,3539.00
2023-04-12T11:33:51.155Z,3542.00
2023-04-12T11:34:51.240Z,3550.00
2023-04-12T11:35:51.159Z,3542.00
2023-04-12T11:36:51.159Z,3543.00
2023-04-12T11:37:51.173Z,3534.00
2023-04-12T11:38:51.255Z,3535.00
2023-04-12T11:39:51.294Z,3540.00
2023-04-12T11:40:51.375Z,3538.00
2023-04-12T11:41:51.392Z,3539.00
2023-04-12T11:42:51.377Z,3537.00
2023-04-12T11:43:51.388Z,3515.00
2023-04-12T11:44:55.835Z,3507.00
2023-04-12T11:45:52.343Z,3502.00
2023-04-12T11:46:51.305Z,3500.00
2023-04-12T11:47:51.910Z,3490.00
2023-04-12T11:48:51.255Z,3494.00
2023-04-12T11:49:51.214Z,3487.00
2023-04-12T11:50:59.865Z,3479.00
2023-04-12T11:51:52.164Z,3488.00
2023-04-12T11:52:51.139Z,3483.00
2023-04-12T11:53:51.106Z,3483.00
2023-04-12T11:54:51.114Z,3477.00
2023-04-12T11:55:51.045Z,3479.00
2023-04-12T11:56:51.013Z,3473.00
2023-04-12T11:57:50.988Z,3475.00
2023-04-12T11:58:50.967Z,3467.00
2023-04-12T11:59:50.928Z,3459.00
2023-04-12T12:00:50.899Z,3460.00
2023-04-12T12:01:50.898Z,3449.00
2023-04-12T12:03:06.609Z,3447.00
2023-04-12T12:03:52.195Z,3442.00
2023-04-12T12:04:51.135Z,3442.00
2023-04-12T12:05:50.938Z,3442.00
2023-04-12T12:06:50.939Z,3435.00
2023-04-12T12:07:50.759Z,3431.00